Loading…
Loading…
Loading…
Loading…
Loading parcel record…
Hopewell Twp, NJ·Mercer County
Owner email, phone, and authorized agent are available on Pro.
| Date | Price | Book / Page | Verified by |
|---|---|---|---|
| 5/14/2020 | $1,000,000 | 6404 / 1975 | Recorded deed |
| 11/20/1998 | $900,000 | 3497 / 62 | Tax assessor |
| 12/30/1988 | $1 | 2473 / 877 | Tax assessor |
Activity captured from the county clerk's daily feed. Includes deeds, mortgages, and other recorded filings.
| Date | Type | Grantor | Grantee | Book / Page | Instrument |
|---|---|---|---|---|---|
| 2026-03-10 | NOTICE OF SETTLEMENT | — | — | 1625 / 640 | 2026010494 |
| 2026-02-18 | CONSTRUCTION LIEN CLAIM | — | — | 64 / 184 | 2026006378 |
| 2025-10-20 | MORTGAGE | — | — | 11987 / 1893 | 2025035643 |
| 2025-10-20 | DEED | — | — | 6605 / 430 | 2025035642 |
| 2021-06-11 | DEED | — | — | 6444 / 638 | 2021035814 |
| 2020-11-23 | MORTGAGE | — | — | 11547 / 202 | 2020054373 |
| 2020-10-08 | NOTICE OF SETTLEMENT | — | — | 1539 / 1724 | 2020044874 |
| 2020-06-02 | MORTGAGE | — | — | 11492 / 1667 | 2020022702 |
| 2020-06-02 | DEED | — | — | 6404 / 1975 | 2020022701 |
| 2020-05-12 | NOTICE OF SETTLEMENT | — | — | 1530 / 1089 | 2020019956 |
| 2020-05-12 | NOTICE OF SETTLEMENT | — | — | 1530 / 1086 | 2020019955 |
| 2020-03-25 | DEED | — | — | 6400 / 926 | 2020013654 |
| 2020-03-25 | DEED | — | — | 6400 / 913 | 2020013653 |
| 2020-03-25 | DISCHARGE OF MORTGAGE | — | — | 1591 / 1442 | 2020013652 |
| 2020-01-28 | DEED | — | — | 6395 / 163 | 2020004349 |
| 2020-01-07 | NOTICE OF SETTLEMENT | — | — | 1524 / 1418 | 2020001030 |
| 2017-08-18 | MISC DEED | — | — | 6296 / 1248 | 2017038184 |
| 2016-09-06 | DEED | — | — | 6261 / 1 | 2016041495 |
| 2014-12-03 | DEED | — | — | 6207 / 1292 | 2014050680 |
| 2014-04-22 | DEED | — | — | 6191 / 1434 | 2014016238 |
| 2013-11-04 | NOTICE OF LIS PENDENS | — | — | 405 / 274 | 2013061367 |
| 2013-04-04 | MORTGAGE | — | — | 10982 / 1344 | 2013019795 |
| 2013-03-01 | NOTICE OF LIS PENDENS | — | — | 402 / 1105 | 2013011875 |
| 2011-09-23 | TAX SALE CERTIFICATE | — | — | 10766 / 537 | 2011028778 |
| 2001-05-10 | DD2 | — | — | 4044 / 198 | 2001018172 |
| 2001-01-02 | ARL | — | — | 5676 / 191 | 2000049958 |
| 2000-08-22 | DD6 | — | — | 3892 / 104 | 2000033368 |
| 2000-04-24 | DD6 | — | — | 3809 / 11 | 2000016395 |
| 2000-02-08 | ARL | — | — | 5198 / 24 | 2000006496 |
| 1999-09-15 | DD1 | — | — | 3665 / 166 | 1999035603 |